Time;durP1;ratioP1;P1;durP2;ratioP2;P2;SDS_P1;SDS_P2;PMS_P1;PMS_P2;Temp;Humidity;BMP_temperature;BMP_pressure;BME280_temperature;BME280_humidity;BME280_pressure;Samples;Min_cycle;Max_cycle;Signal;HPM_P1;HPM_P2
2023/05/11 00:02:00;;;;;;;0.45;0.45;;;10.40;99.90;;;;;;5072965;28;20037;-83
2023/05/11 00:04:26;;;;;;;0.40;0.40;;;10.30;99.90;;;;;;5045087;28;20059;-83
2023/05/11 00:06:53;;;;;;;0.40;0.40;;;10.40;99.90;;;;;;5035172;28;20029;-84
2023/05/11 00:09:19;;;;;;;0.30;0.30;;;10.30;99.90;;;;;;5041264;28;20062;-84
2023/05/11 00:11:45;;;;;;;0.30;0.30;;;10.40;99.90;;;;;;5042974;28;20059;-83
2023/05/11 00:14:11;;;;;;;0.30;0.30;;;10.30;99.90;;;;;;5059064;28;20133;-84
2023/05/11 00:16:36;;;;;;;0.40;0.40;;;10.30;99.90;;;;;;5053156;28;20098;-85
2023/05/11 00:19:02;;;;;;;0.40;0.40;;;10.30;99.90;;;;;;5063618;28;20073;-85
2023/05/11 00:21:28;;;;;;;0.43;0.43;;;10.30;99.90;;;;;;5057060;28;20035;-84
2023/05/11 00:23:53;;;;;;;0.30;0.30;;;10.30;99.90;;;;;;5060468;28;20044;-83
2023/05/11 00:26:20;;;;;;;0.50;0.50;;;10.30;99.90;;;;;;5046983;28;20048;-85
2023/05/11 00:28:46;;;;;;;0.40;0.40;;;10.40;99.90;;;;;;5052133;28;20440;-83
2023/05/11 00:31:11;;;;;;;0.30;0.30;;;10.40;99.90;;;;;;5062249;28;20049;-87
2023/05/11 00:33:37;;;;;;;0.65;0.40;;;10.40;99.90;;;;;;5024259;28;20044;-84
2023/05/11 00:36:03;;;;;;;0.30;0.30;;;10.30;99.90;;;;;;5038680;28;20122;-83
2023/05/11 00:38:30;;;;;;;;;;;10.30;99.90;;;;;;5051071;28;20037;-84
2023/05/11 00:40:55;;;;;;;0.50;0.50;;;10.30;99.90;;;;;;5038433;28;19920;-82
2023/05/11 00:43:21;;;;;;;0.30;0.30;;;10.30;99.90;;;;;;5064518;28;20067;-83
2023/05/11 00:45:48;;;;;;;0.65;0.65;;;10.30;99.90;;;;;;5060918;28;20036;-83
2023/05/11 00:48:15;;;;;;;1.02;1.02;;;10.30;99.90;;;;;;5066470;28;20044;-84
2023/05/11 00:50:41;;;;;;;0.77;0.77;;;10.30;99.90;;;;;;5050355;28;20032;-85
2023/05/11 00:53:06;;;;;;;0.45;0.45;;;10.30;99.90;;;;;;5048608;28;20102;-85
2023/05/11 00:55:32;;;;;;;0.40;0.40;;;10.30;99.90;;;;;;5029960;28;20041;-86
2023/05/11 00:57:58;;;;;;;1.65;1.05;;;10.30;99.90;;;;;;5059044;28;20748;-83
2023/05/11 01:00:24;;;;;;;;;;;10.30;99.90;;;;;;5044818;28;20309;-83
2023/05/11 01:02:50;;;;;;;0.40;0.40;;;10.30;99.90;;;;;;5057618;28;19928;-84
2023/05/11 01:05:16;;;;;;;0.68;0.68;;;10.20;99.90;;;;;;5057346;28;20041;-83
2023/05/11 01:07:58;;;;;;;0.95;0.50;;;10.20;99.90;;;;;;5056883;28;20549;-83
2023/05/11 01:10:40;;;;;;;0.40;0.40;;;10.20;99.90;;;;;;5060770;28;20033;-84
2023/05/11 01:13:28;;;;;;;0.60;0.60;;;10.30;99.90;;;;;;5056042;28;20043;-85
2023/05/11 01:15:57;;;;;;;0.40;0.40;;;10.30;99.90;;;;;;5056052;28;20064;-83
2023/05/11 01:18:45;;;;;;;0.30;0.30;;;10.20;99.90;;;;;;5041883;28;20033;-83
2023/05/11 01:21:14;;;;;;;0.40;0.40;;;10.30;99.90;;;;;;5057863;28;20076;-84
2023/05/11 01:23:43;;;;;;;0.35;0.35;;;10.20;99.90;;;;;;5036789;28;20033;-81
2023/05/11 01:26:36;;;;;;;0.40;0.40;;;10.30;99.90;;;;;;5036834;28;20390;-81
2023/05/11 01:29:27;;;;;;;0.38;0.38;;;10.30;99.90;;;;;;5058994;28;20037;-83
2023/05/11 01:31:55;;;;;;;0.40;0.40;;;10.30;99.90;;;;;;5064211;28;20039;-84
2023/05/11 01:34:23;;;;;;;0.40;0.40;;;10.30;99.90;;;;;;5049010;28;20072;-84
2023/05/11 01:37:03;;;;;;;0.45;0.45;;;10.30;99.90;;;;;;5045857;28;20045;-85
2023/05/11 01:39:41;;;;;;;0.93;0.93;;;10.30;99.90;;;;;;5055522;28;20033;-83
2023/05/11 01:42:09;;;;;;;0.40;0.40;;;10.30;99.90;;;;;;5043590;28;20091;-85
2023/05/11 01:44:38;;;;;;;0.60;0.60;;;10.20;99.90;;;;;;5044573;28;20117;-86
2023/05/11 01:47:07;;;;;;;0.40;0.40;;;10.20;99.90;;;;;;5047091;28;20057;-82
2023/05/11 01:49:37;;;;;;;0.35;0.35;;;10.20;99.90;;;;;;5054824;28;20437;-83
2023/05/11 01:52:06;;;;;;;0.40;0.40;;;10.20;99.90;;;;;;5060270;28;20045;-83
2023/05/11 01:54:34;;;;;;;0.50;0.50;;;10.20;99.90;;;;;;5059159;28;20051;-84
2023/05/11 01:57:01;;;;;;;0.50;0.50;;;10.20;99.90;;;;;;5047894;28;20048;-83
2023/05/11 01:59:29;;;;;;;0.50;0.50;;;10.10;99.90;;;;;;5056966;28;20040;-83
2023/05/11 02:01:56;;;;;;;0.50;0.50;;;10.10;99.90;;;;;;5031353;28;20040;-82
2023/05/11 02:04:22;;;;;;;0.50;0.50;;;10.10;99.90;;;;;;5045234;28;20041;-84
2023/05/11 02:06:48;;;;;;;;;;;10.10;99.90;;;;;;5058305;28;20103;-83
2023/05/11 02:09:17;;;;;;;0.43;0.43;;;10.20;99.90;;;;;;5042605;28;19920;-82
2023/05/11 02:11:45;;;;;;;0.50;0.50;;;10.20;99.90;;;;;;5053909;28;20037;-84
2023/05/11 02:14:12;;;;;;;0.40;0.40;;;10.20;99.90;;;;;;5057139;28;20037;-82
2023/05/11 02:16:38;;;;;;;0.40;0.40;;;10.10;99.90;;;;;;5023931;28;20049;-82
2023/05/11 02:19:07;;;;;;;0.40;0.40;;;10.20;99.90;;;;;;5045739;28;20471;-85
2023/05/11 02:21:34;;;;;;;0.38;0.38;;;10.20;99.90;;;;;;5058046;28;20179;-83
2023/05/11 02:24:05;;;;;;;0.40;0.40;;;10.20;99.90;;;;;;5058497;28;20120;-84
2023/05/11 02:26:31;;;;;;;0.40;0.40;;;10.20;99.90;;;;;;5046766;28;20102;-83
2023/05/11 02:28:57;;;;;;;0.32;0.32;;;10.20;99.90;;;;;;5057295;28;20040;-84
2023/05/11 02:31:39;;;;;;;0.35;0.35;;;10.20;99.90;;;;;;5066601;28;20048;-83
2023/05/11 02:34:19;;;;;;;0.32;0.32;;;10.20;99.90;;;;;;5078594;28;20130;-83
2023/05/11 02:36:48;;;;;;;0.30;0.30;;;10.20;99.90;;;;;;5052976;28;20037;-83
2023/05/11 02:39:20;;;;;;;0.45;0.45;;;10.20;99.90;;;;;;5058412;28;20028;-82
2023/05/11 02:41:54;;;;;;;0.45;0.45;;;10.20;99.90;;;;;;5031879;28;20109;-84
2023/05/11 02:44:21;;;;;;;0.40;0.40;;;10.20;99.90;;;;;;5038474;28;20072;-82
2023/05/11 02:46:48;;;;;;;0.40;0.40;;;10.20;99.90;;;;;;5054651;28;20502;-85
2023/05/11 02:49:17;;;;;;;0.35;0.35;;;10.20;99.90;;;;;;5043492;28;20479;-81
2023/05/11 02:51:44;;;;;;;0.40;0.40;;;10.20;99.90;;;;;;5073120;28;20037;-84
2023/05/11 02:54:13;;;;;;;0.40;0.40;;;10.20;99.90;;;;;;5054932;28;20135;-85
2023/05/11 02:56:39;;;;;;;0.30;0.30;;;10.20;99.90;;;;;;5055411;28;20105;-85
2023/05/11 02:59:05;;;;;;;0.40;0.40;;;10.10;99.90;;;;;;5045193;28;20070;-85
2023/05/11 03:01:32;;;;;;;0.40;0.40;;;10.10;99.90;;;;;;5032961;28;20064;-84
2023/05/11 03:03:58;;;;;;;0.40;0.40;;;10.10;99.90;;;;;;5027551;28;20032;-86
2023/05/11 03:06:24;;;;;;;0.50;0.50;;;10.00;99.90;;;;;;5044236;28;20048;-82
2023/05/11 03:08:50;;;;;;;;;;;10.00;99.90;;;;;;5056880;28;20881;-86
2023/05/11 03:11:17;;;;;;;0.30;0.30;;;10.00;99.90;;;;;;5018150;28;19921;-83
2023/05/11 03:13:44;;;;;;;1.17;0.70;;;10.00;99.90;;;;;;5046233;28;20037;-87
2023/05/11 03:16:14;;;;;;;0.40;0.40;;;10.00;99.90;;;;;;5036422;28;20508;-86
2023/05/11 03:18:40;;;;;;;0.40;0.40;;;10.00;99.90;;;;;;5033262;28;20045;-84
2023/05/11 03:21:07;;;;;;;0.68;0.68;;;10.00;99.90;;;;;;5064283;28;20124;-87
2023/05/11 03:23:34;;;;;;;0.40;0.40;;;10.00;99.90;;;;;;5043936;28;20041;-84
2023/05/11 03:26:01;;;;;;;0.40;0.40;;;10.00;99.90;;;;;;5031870;28;20482;-85
2023/05/11 03:28:28;;;;;;;0.38;0.38;;;10.10;99.90;;;;;;5033181;28;20071;-83
2023/05/11 03:30:54;;;;;;;0.32;0.32;;;10.10;99.90;;;;;;5058142;28;20131;-85
2023/05/11 03:33:20;;;;;;;0.38;0.38;;;10.10;99.90;;;;;;5026651;28;20128;-87
2023/05/11 03:35:48;;;;;;;0.40;0.40;;;10.10;99.90;;;;;;5052290;28;20041;-85
2023/05/11 03:38:15;;;;;;;0.57;0.57;;;10.10;99.90;;;;;;5049651;28;20171;-85
2023/05/11 03:40:42;;;;;;;0.50;0.50;;;10.10;99.90;;;;;;5037546;28;20064;-85
2023/05/11 03:43:11;;;;;;;9.95;0.82;;;10.20;99.90;;;;;;5060378;28;20057;-87
2023/05/11 03:45:38;;;;;;;0.50;0.50;;;10.20;99.90;;;;;;5039337;28;20055;-82
2023/05/11 03:48:05;;;;;;;0.50;0.50;;;10.20;99.90;;;;;;5055374;28;20041;-85
2023/05/11 03:50:32;;;;;;;0.40;0.40;;;10.20;99.90;;;;;;5054941;28;20052;-84
2023/05/11 03:52:59;;;;;;;0.40;0.40;;;10.30;99.90;;;;;;5040516;28;20036;-83
2023/05/11 03:55:25;;;;;;;0.50;0.50;;;10.20;99.90;;;;;;5038497;28;20048;-83
2023/05/11 03:57:51;;;;;;;0.40;0.40;;;10.30;99.90;;;;;;5055496;28;20047;-84
2023/05/11 04:00:17;;;;;;;0.90;0.90;;;10.20;99.90;;;;;;5054282;28;20075;-83
2023/05/11 04:02:43;;;;;;;0.93;0.93;;;10.30;99.90;;;;;;5052858;28;20070;-84
2023/05/11 04:05:10;;;;;;;0.40;0.40;;;10.30;99.90;;;;;;5060785;28;20040;-80
2023/05/11 04:07:37;;;;;;;0.40;0.40;;;10.30;99.90;;;;;;5035622;28;20486;-81
2023/05/11 04:10:04;;;;;;;0.40;0.40;;;10.30;99.90;;;;;;5032567;28;20497;-82
2023/05/11 04:12:31;;;;;;;0.32;0.32;;;10.30;99.90;;;;;;5038462;28;20077;-81
2023/05/11 04:14:57;;;;;;;0.40;0.40;;;10.30;99.90;;;;;;5041975;28;20089;-83
2023/05/11 04:17:22;;;;;;;0.50;0.50;;;10.30;99.90;;;;;;5052608;28;20804;-83
2023/05/11 04:19:48;;;;;;;0.40;0.40;;;10.30;99.90;;;;;;5056086;28;20401;-82
2023/05/11 04:22:14;;;;;;;0.40;0.40;;;10.30;99.90;;;;;;5034922;28;20070;-81
2023/05/11 04:24:39;;;;;;;1.23;1.13;;;10.30;99.90;;;;;;5045013;28;20040;-84
2023/05/11 04:27:05;;;;;;;0.70;0.70;;;10.30;99.90;;;;;;5027903;28;20037;-83
2023/05/11 04:29:31;;;;;;;0.40;0.40;;;10.30;99.90;;;;;;5053965;28;20485;-83
2023/05/11 04:31:57;;;;;;;0.38;0.38;;;10.30;99.90;;;;;;5047669;28;20143;-84
2023/05/11 04:34:22;;;;;;;0.32;0.32;;;10.30;99.90;;;;;;5052258;28;20041;-84
2023/05/11 04:36:49;;;;;;;1.17;0.82;;;10.30;99.90;;;;;;5060965;28;20107;-83
2023/05/11 04:39:15;;;;;;;0.50;0.50;;;10.30;99.90;;;;;;5058033;28;20066;-82
2023/05/11 04:41:45;;;;;;;0.50;0.50;;;10.30;99.90;;;;;;5060731;28;20124;-82
2023/05/11 04:44:11;;;;;;;0.40;0.40;;;10.30;99.90;;;;;;5058515;28;20040;-83
2023/05/11 04:46:39;;;;;;;;;;;10.30;99.90;;;;;;5057319;28;20056;-83
2023/05/11 04:49:05;;;;;;;0.40;0.40;;;10.30;99.90;;;;;;5058488;28;19928;-83
2023/05/11 04:51:31;;;;;;;0.60;0.60;;;10.30;99.90;;;;;;5059503;28;20060;-83
2023/05/11 04:53:57;;;;;;;0.77;0.77;;;10.40;99.90;;;;;;5060698;28;20055;-83
2023/05/11 04:56:22;;;;;;;0.30;0.30;;;10.30;99.90;;;;;;5057952;28;20075;-82
2023/05/11 04:58:48;;;;;;;0.50;0.50;;;10.30;99.90;;;;;;5053378;28;20040;-83
2023/05/11 05:01:14;;;;;;;0.40;0.40;;;10.30;99.90;;;;;;5051218;28;20041;-83
2023/05/11 05:03:39;;;;;;;0.80;0.80;;;10.30;99.90;;;;;;5026968;28;20524;-82
2023/05/11 05:06:05;;;;;;;0.40;0.40;;;10.30;99.90;;;;;;5053468;28;20043;-83
2023/05/11 05:08:31;;;;;;;0.50;0.50;;;10.30;99.90;;;;;;5058319;28;20141;-81
2023/05/11 05:10:56;;;;;;;0.30;0.30;;;10.30;99.90;;;;;;5044732;28;20043;-83
2023/05/11 05:13:22;;;;;;;0.40;0.40;;;10.40;99.90;;;;;;5044162;28;20055;-83
2023/05/11 05:15:48;;;;;;;0.40;0.40;;;10.30;99.90;;;;;;5047832;28;20496;-82
2023/05/11 05:18:14;;;;;;;0.40;0.40;;;10.30;99.90;;;;;;5068148;28;20104;-86
2023/05/11 05:20:39;;;;;;;1.20;1.13;;;10.30;99.90;;;;;;5037265;28;20037;-82
2023/05/11 05:23:05;;;;;;;0.32;0.32;;;10.40;99.90;;;;;;5056600;28;20043;-86
2023/05/11 05:25:31;;;;;;;0.50;0.50;;;10.30;99.90;;;;;;5043755;28;20063;-85
2023/05/11 05:27:56;;;;;;;0.40;0.40;;;10.30;99.90;;;;;;5033095;28;20119;-84
2023/05/11 05:30:22;;;;;;;0.32;0.32;;;10.30;99.90;;;;;;5049287;28;20033;-83
2023/05/11 05:32:48;;;;;;;0.40;0.40;;;10.30;99.90;;;;;;5045599;28;20039;-83
2023/05/11 05:35:14;;;;;;;0.30;0.30;;;10.30;99.90;;;;;;5034085;28;20036;-84
2023/05/11 05:37:39;;;;;;;1.20;1.10;;;10.40;99.90;;;;;;5044063;28;20068;-83
2023/05/11 05:40:06;;;;;;;0.43;0.43;;;10.40;99.90;;;;;;5044423;28;20067;-82
2023/05/11 05:42:31;;;;;;;0.40;0.40;;;10.50;99.90;;;;;;5042239;28;20390;-84
2023/05/11 05:44:57;;;;;;;0.30;0.30;;;10.60;99.90;;;;;;5038671;28;20131;-85
2023/05/11 05:47:23;;;;;;;0.30;0.30;;;10.70;99.90;;;;;;5043855;28;20051;-84
2023/05/11 05:49:48;;;;;;;0.40;0.40;;;10.70;99.90;;;;;;5051069;28;20032;-85
2023/05/11 05:52:14;;;;;;;0.30;0.30;;;10.80;99.90;;;;;;5033749;28;20036;-85
2023/05/11 05:54:40;;;;;;;0.43;0.43;;;10.80;99.90;;;;;;5043356;28;20041;-84
2023/05/11 05:57:06;;;;;;;0.40;0.40;;;10.90;99.90;;;;;;5053327;28;20394;-83
2023/05/11 05:59:31;;;;;;;0.40;0.40;;;10.90;99.90;;;;;;5043329;28;20102;-82
2023/05/11 06:01:57;;;;;;;0.50;0.50;;;10.90;99.90;;;;;;5041264;28;20048;-82
2023/05/11 06:04:23;;;;;;;0.30;0.30;;;10.90;99.90;;;;;;5056944;28;20033;-86
2023/05/11 06:06:49;;;;;;;0.40;0.40;;;11.10;99.90;;;;;;5041495;28;20559;-82
2023/05/11 06:09:14;;;;;;;0.47;0.47;;;11.10;99.90;;;;;;5061092;28;20044;-82
2023/05/11 06:11:40;;;;;;;0.30;0.30;;;11.20;99.90;;;;;;5048506;28;20045;-82
2023/05/11 06:14:06;;;;;;;0.40;0.40;;;11.20;99.90;;;;;;5026564;28;20040;-83
2023/05/11 06:16:31;;;;;;;0.60;0.60;;;11.40;99.90;;;;;;5056730;28;20080;-83
2023/05/11 06:18:57;;;;;;;0.40;0.40;;;11.50;99.90;;;;;;5038058;28;20040;-82
2023/05/11 06:21:24;;;;;;;0.50;0.50;;;11.50;99.90;;;;;;5036546;28;20037;-83
2023/05/11 06:23:49;;;;;;;0.70;0.70;;;11.60;99.90;;;;;;5054982;28;20047;-82
2023/05/11 06:26:15;;;;;;;0.30;0.30;;;11.70;99.90;;;;;;5051513;28;20040;-85
2023/05/11 06:28:40;;;;;;;0.38;0.38;;;11.80;99.90;;;;;;5034466;28;20096;-84
2023/05/11 06:31:06;;;;;;;0.40;0.40;;;12.00;99.90;;;;;;5051049;28;20113;-83
2023/05/11 06:33:32;;;;;;;0.30;0.30;;;12.10;99.90;;;;;;5047831;28;20068;-83
2023/05/11 06:35:58;;;;;;;0.43;0.43;;;12.30;99.90;;;;;;5047659;28;20060;-80
2023/05/11 06:38:23;;;;;;;0.40;0.40;;;12.40;99.90;;;;;;5057637;28;20036;-81
2023/05/11 06:40:52;;;;;;;0.50;0.50;;;12.30;99.90;;;;;;5058198;28;20033;-82
2023/05/11 06:43:18;;;;;;;0.40;0.40;;;12.30;99.90;;;;;;5057923;28;20059;-83
2023/05/11 06:45:44;;;;;;;0.40;0.40;;;12.40;99.90;;;;;;5033082;28;20489;-82
2023/05/11 06:48:10;;;;;;;2.58;0.50;;;12.30;99.90;;;;;;5025233;28;20040;-84
2023/05/11 06:50:35;;;;;;;0.55;0.55;;;12.30;99.90;;;;;;5051353;28;20095;-82
2023/05/11 06:53:01;;;;;;;0.30;0.30;;;12.30;99.90;;;;;;5058575;28;20039;-80
2023/05/11 06:55:27;;;;;;;0.95;0.95;;;12.30;99.90;;;;;;5040757;28;20048;-81
2023/05/11 06:57:52;;;;;;;0.45;0.45;;;12.30;99.90;;;;;;5059525;28;20039;-82
2023/05/11 07:00:18;;;;;;;0.30;0.30;;;12.30;99.90;;;;;;5039338;28;20044;-82
2023/05/11 07:02:44;;;;;;;0.57;0.57;;;12.40;99.90;;;;;;5031393;28;20043;-84
2023/05/11 07:05:11;;;;;;;0.40;0.40;;;12.40;99.90;;;;;;5061989;28;20044;-84
2023/05/11 07:07:37;;;;;;;0.30;0.30;;;12.30;99.90;;;;;;5054465;28;20064;-83
2023/05/11 07:10:03;;;;;;;;;;;12.40;99.90;;;;;;5054567;28;20049;-82
2023/05/11 07:12:29;;;;;;;0.30;0.30;;;12.50;99.90;;;;;;5081582;28;19920;-82
2023/05/11 07:14:55;;;;;;;0.60;0.60;;;12.60;99.90;;;;;;5044322;28;20110;-83
2023/05/11 07:17:20;;;;;;;0.30;0.30;;;12.60;99.90;;;;;;5051903;28;20498;-83
2023/05/11 07:19:46;;;;;;;1.60;1.55;;;12.50;99.90;;;;;;5042421;28;20040;-83
2023/05/11 07:22:12;;;;;;;;;;;12.40;99.90;;;;;;5036669;28;20033;-82
2023/05/11 07:24:37;;;;;;;0.52;0.40;;;12.30;99.90;;;;;;5047451;28;19917;-82
2023/05/11 07:27:03;;;;;;;0.30;0.30;;;12.40;99.90;;;;;;5048483;28;20052;-84
2023/05/11 07:29:29;;;;;;;0.60;0.60;;;12.50;99.90;;;;;;5071075;28;20044;-82
2023/05/11 07:31:54;;;;;;;;;;;12.50;99.90;;;;;;5039788;28;20486;-82
2023/05/11 07:34:20;;;;;;;0.40;0.40;;;12.40;99.90;;;;;;5046113;28;19920;-82
2023/05/11 07:36:46;;;;;;;1.10;1.00;;;12.30;99.90;;;;;;5049514;28;20171;-81
2023/05/11 07:39:11;;;;;;;0.30;0.30;;;12.20;99.90;;;;;;5046102;28;20052;-83
2023/05/11 07:41:37;;;;;;;0.35;0.35;;;12.20;99.90;;;;;;5058758;28;20394;-84
2023/05/11 07:44:03;;;;;;;0.30;0.30;;;12.30;99.90;;;;;;5046687;28;20035;-85
2023/05/11 07:46:29;;;;;;;1.90;0.57;;;12.30;99.90;;;;;;5043116;28;20105;-85
2023/05/11 07:48:55;;;;;;;;;;;12.30;99.90;;;;;;5054172;28;20415;-84
2023/05/11 07:51:21;;;;;;;1.35;1.25;;;12.50;99.90;;;;;;5078187;28;19920;-82
2023/05/11 07:53:46;;;;;;;0.38;0.38;;;12.50;99.90;;;;;;5080340;28;20068;-81
2023/05/11 07:56:12;;;;;;;0.30;0.30;;;12.50;99.90;;;;;;5057461;28;20044;-82
2023/05/11 07:58:38;;;;;;;0.82;0.82;;;12.40;99.90;;;;;;5045730;28;20386;-82
2023/05/11 08:01:04;;;;;;;0.47;0.40;;;12.30;99.90;;;;;;5057934;28;20037;-84
2023/05/11 08:03:29;;;;;;;0.40;0.40;;;12.40;99.90;;;;;;5048778;28;20043;-82
2023/05/11 08:05:55;;;;;;;0.35;0.35;;;12.50;99.90;;;;;;5027063;28;20045;-82
2023/05/11 08:08:21;;;;;;;0.30;0.30;;;12.50;99.90;;;;;;5054411;28;20052;-85
2023/05/11 08:10:46;;;;;;;0.40;0.40;;;12.50;99.90;;;;;;5057381;28;20402;-82
2023/05/11 08:13:12;;;;;;;0.40;0.40;;;12.50;99.90;;;;;;5029143;28;20045;-84
2023/05/11 08:15:38;;;;;;;0.68;0.68;;;12.40;99.90;;;;;;5041205;28;20138;-82
2023/05/11 08:18:05;;;;;;;0.40;0.40;;;12.30;99.90;;;;;;5058069;28;20053;-84
2023/05/11 08:20:30;;;;;;;0.40;0.40;;;12.20;99.90;;;;;;5045395;28;20044;-82
2023/05/11 08:22:56;;;;;;;0.52;0.52;;;12.20;99.90;;;;;;5062076;28;20525;-85
2023/05/11 08:25:22;;;;;;;1.48;0.50;;;12.20;99.90;;;;;;5040617;28;20040;-86
2023/05/11 08:27:48;;;;;;;0.40;0.40;;;12.20;99.90;;;;;;5043633;28;20607;-83
2023/05/11 08:30:14;;;;;;;0.50;0.50;;;12.20;99.90;;;;;;5043270;28;20432;-83
2023/05/11 08:32:40;;;;;;;0.40;0.40;;;12.20;99.90;;;;;;5038649;28;20446;-81
2023/05/11 08:35:06;;;;;;;0.68;0.68;;;12.30;99.90;;;;;;5051114;28;20036;-83
2023/05/11 08:37:32;;;;;;;0.30;0.30;;;12.40;99.90;;;;;;5062544;28;20040;-84
2023/05/11 08:39:58;;;;;;;0.50;0.50;;;12.50;99.90;;;;;;5042076;28;20148;-83
2023/05/11 08:42:26;;;;;;;0.30;0.30;;;12.70;99.90;;;;;;5054340;28;20055;-84
2023/05/11 08:44:55;;;;;;;0.40;0.40;;;12.80;99.90;;;;;;5066609;28;20040;-85
2023/05/11 08:47:22;;;;;;;0.40;0.40;;;12.80;99.90;;;;;;5054823;28;20098;-83
2023/05/11 08:49:49;;;;;;;0.88;0.88;;;12.80;99.90;;;;;;5058651;28;20440;-84
2023/05/11 08:52:17;;;;;;;0.30;0.30;;;12.90;99.90;;;;;;5057599;28;20041;-83
2023/05/11 08:54:42;;;;;;;0.45;0.45;;;12.90;99.90;;;;;;5060664;28;20047;-82
2023/05/11 08:57:10;;;;;;;0.93;0.68;;;12.90;99.90;;;;;;5046604;28;20072;-84
2023/05/11 08:59:36;;;;;;;0.30;0.30;;;12.90;99.90;;;;;;5041504;28;20439;-81
2023/05/11 09:02:04;;;;;;;0.22;0.22;;;12.80;99.90;;;;;;5058244;28;20090;-84
2023/05/11 09:04:31;;;;;;;0.30;0.30;;;12.90;99.90;;;;;;5043430;28;20411;-82
2023/05/11 09:06:57;;;;;;;0.40;0.40;;;13.00;99.90;;;;;;5055738;28;20078;-82
2023/05/11 09:09:23;;;;;;;0.30;0.30;;;13.10;99.90;;;;;;5066385;28;20056;-84
2023/05/11 09:11:50;;;;;;;0.40;0.40;;;13.20;99.90;;;;;;5059351;28;20045;-84
2023/05/11 09:14:16;;;;;;;0.20;0.20;;;13.40;99.90;;;;;;5047513;28;20098;-83
2023/05/11 09:16:41;;;;;;;0.85;0.85;;;13.40;99.90;;;;;;5030746;28;20048;-83
2023/05/11 09:19:14;;;;;;;0.30;0.30;;;13.50;99.90;;;;;;5035659;28;21399;-83
2023/05/11 09:21:40;;;;;;;0.50;0.50;;;13.50;99.90;;;;;;5042582;28;20044;-83
2023/05/11 09:24:06;;;;;;;0.38;0.38;;;13.50;99.90;;;;;;5051618;28;20481;-83
2023/05/11 09:26:32;;;;;;;0.40;0.40;;;13.60;99.90;;;;;;5068877;28;20515;-83
2023/05/11 09:28:58;;;;;;;0.30;0.30;;;13.70;99.90;;;;;;5047659;28;20049;-84
2023/05/11 09:31:34;;;;;;;;;;;13.90;99.90;;;;;;5062421;28;20045;-82
2023/05/11 09:34:19;;;;;;;1.48;1.38;;;14.00;99.90;;;;;;5058667;28;19920;-82
2023/05/11 09:36:53;;;;;;;0.20;0.20;;;14.10;99.90;;;;;;5058630;28;20126;-84
2023/05/11 09:39:30;;;;;;;0.47;0.47;;;14.40;99.90;;;;;;5049938;28;20096;-81
2023/05/11 09:42:17;;;;;;;0.38;0.38;;;14.60;99.90;;;;;;5064693;28;20488;-82
2023/05/11 09:44:45;;;;;;;1.20;1.20;;;14.70;99.90;;;;;;5045682;28;20120;-82
2023/05/11 09:47:11;;;;;;;0.52;0.52;;;14.80;99.90;;;;;;5056398;28;20044;-83
2023/05/11 09:49:41;;;;;;;0.75;0.50;;;15.10;99.90;;;;;;5048471;28;20036;-86
2023/05/11 09:52:10;;;;;;;1.55;0.95;;;15.40;99.90;;;;;;5051640;28;20040;-85
2023/05/11 09:54:46;;;;;;;0.40;0.40;;;15.60;99.90;;;;;;5064882;28;20053;-84
2023/05/11 09:57:27;;;;;;;0.80;0.80;;;15.90;99.90;;;;;;5054036;28;20394;-82
2023/05/11 09:59:55;;;;;;;0.73;0.73;;;16.10;99.90;;;;;;5063358;28;20055;-83
2023/05/11 10:02:29;;;;;;;0.30;0.30;;;16.30;99.90;;;;;;5052673;28;20041;-85
2023/05/11 10:05:00;;;;;;;0.30;0.30;;;16.50;99.90;;;;;;5044101;28;20123;-85
2023/05/11 10:07:34;;;;;;;0.82;0.82;;;16.70;99.90;;;;;;5063032;28;20048;-82
2023/05/11 10:10:05;;;;;;;0.82;0.82;;;16.70;99.90;;;;;;5053701;28;20045;-82
2023/05/11 10:12:32;;;;;;;0.30;0.30;;;16.50;99.90;;;;;;5038132;28;20059;-82
2023/05/11 10:15:03;;;;;;;0.55;0.55;;;16.30;99.90;;;;;;5053941;28;20111;-82
2023/05/11 10:17:29;;;;;;;0.30;0.30;;;16.10;99.90;;;;;;5052252;28;20063;-83
2023/05/11 10:19:56;;;;;;;1.30;1.20;;;15.80;99.90;;;;;;5054959;28;20075;-85
2023/05/11 10:22:25;;;;;;;1.15;0.50;;;15.70;99.90;;;;;;5056114;28;20036;-84
2023/05/11 10:24:51;;;;;;;0.40;0.40;;;15.70;99.90;;;;;;5071970;28;20493;-83
2023/05/11 10:27:17;;;;;;;0.30;0.30;;;15.70;99.90;;;;;;5031897;28;20185;-82
2023/05/11 10:29:44;;;;;;;0.38;0.38;;;15.80;99.90;;;;;;5062282;28;20052;-81
2023/05/11 10:32:11;;;;;;;1.30;1.30;;;16.00;99.90;;;;;;5059417;28;20032;-82
2023/05/11 10:34:39;;;;;;;0.70;0.70;;;16.20;99.90;;;;;;5056842;28;20051;-84
2023/05/11 10:37:05;;;;;;;0.52;0.52;;;16.50;99.90;;;;;;5053713;28;20048;-82
2023/05/11 10:39:31;;;;;;;;;;;16.80;99.90;;;;;;5053234;28;20041;-84
2023/05/11 10:42:22;;;;;;;0.80;0.80;;;17.00;99.90;;;;;;5061244;28;20346;-81
2023/05/11 10:45:06;;;;;;;1.15;1.05;;;17.20;99.90;;;;;;5062002;28;20123;-82
2023/05/11 10:48:10;;;;;;;0.30;0.30;;;17.40;99.90;;;;;;5050736;28;20044;-81
2023/05/11 10:50:47;;;;;;;0.98;0.98;;;17.60;99.90;;;;;;5056303;28;20374;-82
2023/05/11 10:53:16;;;;;;;;;;;17.90;99.90;;;;;;5077197;28;20048;-82
2023/05/11 10:55:53;;;;;;;0.30;0.30;;;17.90;99.90;;;;;;5055059;28;20031;-81
2023/05/11 10:59:10;;;;;;;0.60;0.60;;;17.70;99.90;;;;;;5053478;28;20036;-81
2023/05/11 11:01:40;;;;;;;0.50;0.50;;;17.70;99.90;;;;;;5043132;28;20486;-80
2023/05/11 11:04:10;;;;;;;0.75;0.50;;;17.50;99.90;;;;;;5046632;28;20043;-82
2023/05/11 11:06:38;;;;;;;0.60;0.60;;;17.30;99.90;;;;;;5050924;28;20048;-82
2023/05/11 11:09:07;;;;;;;0.50;0.50;;;17.30;99.90;;;;;;5053893;28;20036;-85
2023/05/11 11:11:39;;;;;;;0.93;0.93;;;17.40;99.90;;;;;;5043269;28;20504;-82
2023/05/11 11:14:06;;;;;;;0.30;0.30;;;17.60;99.90;;;;;;5057618;28;20040;-82
2023/05/11 11:16:32;;;;;;;1.08;0.77;;;17.50;99.90;;;;;;5056369;28;20052;-83
2023/05/11 11:19:29;;;;;;;0.30;0.30;;;17.50;99.90;;;;;;5044237;28;20052;-82
2023/05/11 11:21:56;;;;;;;0.65;0.65;;;17.70;99.90;;;;;;5054352;28;20044;-82
2023/05/11 11:24:37;;;;;;;0.40;0.40;;;17.60;99.90;;;;;;5056742;28;20045;-84
2023/05/11 11:27:04;;;;;;;0.20;0.20;;;17.70;99.90;;;;;;5055943;28;20098;-82
2023/05/11 11:29:30;;;;;;;0.20;0.20;;;18.00;99.90;;;;;;5046678;28;20091;-85
2023/05/11 11:32:18;;;;;;;0.20;0.20;;;18.20;99.90;;;;;;5057486;28;20135;-82
2023/05/11 11:34:47;;;;;;;0.70;0.70;;;18.20;99.90;;;;;;5050576;28;20083;-84
2023/05/11 11:37:13;;;;;;;0.75;0.75;;;18.30;99.90;;;;;;5056964;28;20451;-82
2023/05/11 11:39:42;;;;;;;0.30;0.30;;;18.60;99.90;;;;;;5064952;28;20083;-82
2023/05/11 11:42:40;;;;;;;0.57;0.57;;;18.70;99.90;;;;;;5050671;28;20039;-82
2023/05/11 11:45:26;;;;;;;0.20;0.20;;;18.70;99.90;;;;;;5055502;28;20408;-83
2023/05/11 11:48:06;;;;;;;0.25;0.25;;;18.40;99.90;;;;;;5052017;28;20045;-84
2023/05/11 11:50:32;;;;;;;0.20;0.20;;;18.30;99.90;;;;;;5057114;28;20101;-84
2023/05/11 11:52:58;;;;;;;0.20;0.20;;;18.40;99.90;;;;;;5033920;28;20044;-84
2023/05/11 11:55:45;;;;;;;0.45;0.45;;;18.20;99.90;;;;;;5064410;28;20049;-82
2023/05/11 11:58:11;;;;;;;0.30;0.30;;;18.30;99.90;;;;;;5057588;28;20059;-81
2023/05/11 12:00:37;;;;;;;0.28;0.28;;;18.60;99.90;;;;;;5053172;28;20021;-84
2023/05/11 12:03:03;;;;;;;;;;;18.80;99.90;;;;;;5065637;28;20075;-82
2023/05/11 12:05:30;;;;;;;0.47;0.47;;;18.80;99.90;;;;;;5058405;28;19916;-84
2023/05/11 12:08:03;;;;;;;0.28;0.28;;;18.80;99.90;;;;;;5042578;28;20118;-81
2023/05/11 12:10:28;;;;;;;0.43;0.43;;;18.70;99.90;;;;;;5059852;28;20044;-82
2023/05/11 12:12:56;;;;;;;0.40;0.40;;;18.70;99.90;;;;;;5056629;28;20094;-84
2023/05/11 12:15:27;;;;;;;0.20;0.20;;;18.60;99.90;;;;;;5064926;28;20128;-81
2023/05/11 12:17:53;;;;;;;0.30;0.30;;;18.60;99.90;;;;;;5063293;28;20114;-82
2023/05/11 12:20:19;;;;;;;0.50;0.50;;;18.70;99.90;;;;;;5058420;28;20051;-81
2023/05/11 12:22:47;;;;;;;0.50;0.50;;;18.70;99.90;;;;;;5045409;28;20032;-82
2023/05/11 12:25:16;;;;;;;0.30;0.30;;;18.80;99.90;;;;;;5030591;28;20033;-83
2023/05/11 12:27:59;;;;;;;0.75;0.75;;;18.80;99.90;;;;;;5054207;28;20127;-82
2023/05/11 12:30:28;;;;;;;0.20;0.20;;;18.70;99.90;;;;;;5039251;28;20147;-84
2023/05/11 12:32:55;;;;;;;0.40;0.40;;;18.90;99.90;;;;;;5057903;28;20044;-83
2023/05/11 12:35:34;;;;;;;0.38;0.38;;;19.20;99.90;;;;;;5056805;28;20060;-84
2023/05/11 12:38:01;;;;;;;0.40;0.40;;;19.30;99.90;;;;;;5033502;28;20044;-82
2023/05/11 12:40:27;;;;;;;0.40;0.40;;;19.10;99.90;;;;;;5046529;28;20040;-85
2023/05/11 12:42:54;;;;;;;1.20;1.20;;;18.80;99.90;;;;;;5055081;28;20102;-84
2023/05/11 12:45:24;;;;;;;0.20;0.20;;;18.90;99.90;;;;;;5064496;28;20802;-84
2023/05/11 12:47:52;;;;;;;1.10;0.88;;;19.00;99.90;;;;;;5058719;28;20040;-84
2023/05/11 12:50:18;;;;;;;0.43;0.43;;;19.10;99.90;;;;;;5068099;28;20253;-81
2023/05/11 12:52:45;;;;;;;0.80;0.80;;;19.30;99.90;;;;;;5070254;28;20037;-86
2023/05/11 12:55:11;;;;;;;0.40;0.40;;;19.50;99.90;;;;;;5062460;28;20070;-82
2023/05/11 12:57:39;;;;;;;0.22;0.22;;;19.60;99.90;;;;;;5056448;28;20037;-84